createdAt,value
2018-07-13T00:01:42.595Z,5.23
2018-07-13T00:04:10.137Z,6.37
2018-07-13T00:06:37.781Z,6.23
2018-07-13T00:09:06.569Z,7.90
2018-07-13T00:11:34.102Z,6.77
2018-07-13T00:14:17.773Z,6.83
2018-07-13T00:16:46.348Z,6.47
2018-07-13T00:19:14.565Z,6.13
2018-07-13T00:21:42.224Z,5.43
2018-07-13T00:24:09.805Z,6.30
2018-07-13T00:26:38.123Z,5.80
2018-07-13T00:29:05.790Z,6.07
2018-07-13T00:31:33.890Z,5.10
2018-07-13T00:34:01.522Z,6.20
2018-07-13T00:36:29.432Z,5.37
2018-07-13T00:38:57.058Z,6.33
2018-07-13T00:41:24.626Z,6.70
2018-07-13T00:43:52.316Z,6.33
2018-07-13T00:46:20.199Z,6.27
2018-07-13T00:48:47.791Z,9.27
2018-07-13T00:51:15.256Z,8.87
2018-07-13T00:53:43.407Z,6.93
2018-07-13T00:56:11.057Z,7.90
2018-07-13T00:58:38.728Z,8.70
2018-07-13T01:01:06.358Z,8.77
2018-07-13T01:03:33.882Z,8.23
2018-07-13T01:06:01.723Z,7.23
2018-07-13T01:08:29.368Z,6.50
2018-07-13T01:10:57.918Z,7.03
2018-07-13T01:13:25.527Z,8.60
2018-07-13T01:15:53.123Z,6.70
2018-07-13T01:18:20.768Z,7.10
2018-07-13T01:20:48.238Z,6.37
2018-07-13T01:23:15.887Z,7.77
2018-07-13T01:25:43.503Z,8.53
2018-07-13T01:28:11.073Z,6.83
2018-07-13T01:30:38.698Z,6.70
2018-07-13T01:33:07.118Z,8.10
2018-07-13T01:35:34.706Z,7.60
2018-07-13T01:38:02.362Z,6.07
2018-07-13T01:40:30.033Z,7.07
2018-07-13T01:42:57.631Z,5.83
2018-07-13T01:45:25.236Z,6.50
2018-07-13T01:47:52.857Z,6.60
2018-07-13T01:50:20.459Z,6.37
2018-07-13T01:52:47.971Z,5.97
2018-07-13T01:55:15.601Z,5.27
2018-07-13T01:57:43.328Z,6.10
2018-07-13T02:00:10.997Z,5.33
2018-07-13T02:02:38.642Z,5.10
2018-07-13T02:05:06.771Z,6.57
2018-07-13T02:07:34.686Z,6.83
2018-07-13T02:10:02.301Z,8.23
2018-07-13T02:12:29.902Z,5.87
2018-07-13T02:14:57.491Z,5.97
2018-07-13T02:17:25.118Z,5.67
2018-07-13T02:19:52.715Z,7.03
2018-07-13T02:22:20.366Z,5.83
2018-07-13T02:27:40.718Z,7.67
2018-07-13T02:30:08.319Z,7.13
2018-07-13T02:32:35.934Z,5.97
2018-07-13T02:35:03.601Z,6.83
2018-07-13T02:37:31.176Z,6.43
2018-07-13T02:39:58.833Z,6.93
2018-07-13T02:42:26.427Z,6.80
2018-07-13T02:44:54.053Z,6.20
2018-07-13T02:47:21.703Z,6.33
2018-07-13T02:49:49.363Z,6.97
2018-07-13T02:52:17.015Z,6.37
2018-07-13T02:54:44.721Z,8.47
2018-07-13T02:57:12.342Z,6.87
2018-07-13T02:59:39.967Z,7.87
2018-07-13T03:02:07.594Z,5.80
2018-07-13T03:04:35.214Z,6.47
2018-07-13T03:07:02.834Z,5.77
2018-07-13T03:09:30.464Z,6.90
2018-07-13T03:11:58.095Z,5.93
2018-07-13T03:14:25.683Z,6.27
2018-07-13T03:19:31.459Z,6.47
2018-07-13T03:21:59.146Z,5.43
2018-07-13T03:24:26.883Z,5.30
2018-07-13T03:26:54.467Z,5.77
2018-07-13T03:29:22.103Z,6.33
2018-07-13T03:31:49.679Z,5.90
2018-07-13T03:34:17.289Z,8.30
2018-07-13T03:36:44.909Z,7.80
2018-07-13T03:39:12.539Z,7.73
2018-07-13T03:41:40.177Z,9.43
2018-07-13T03:44:07.852Z,8.13
2018-07-13T03:46:35.515Z,8.73
2018-07-13T03:49:03.148Z,6.70
2018-07-13T03:51:30.772Z,7.00
2018-07-13T03:53:58.237Z,7.27
2018-07-13T03:56:25.779Z,6.50
2018-07-13T03:58:53.423Z,7.07
2018-07-13T04:01:21.062Z,6.23
2018-07-13T04:03:48.685Z,5.80
2018-07-13T04:06:16.334Z,6.20
2018-07-13T04:08:43.974Z,5.53
2018-07-13T04:11:11.639Z,7.03
2018-07-13T04:13:39.243Z,7.17
2018-07-13T04:16:06.924Z,7.27
2018-07-13T04:18:34.574Z,6.27
2018-07-13T04:21:02.100Z,7.07
2018-07-13T04:23:29.784Z,8.70
2018-07-13T04:25:57.398Z,9.23
2018-07-13T04:28:24.974Z,7.13
2018-07-13T04:30:52.579Z,8.30
2018-07-13T04:33:20.236Z,7.80
2018-07-13T04:35:47.925Z,7.53
2018-07-13T04:38:15.610Z,8.23
2018-07-13T04:40:43.261Z,8.63
2018-07-13T04:43:10.996Z,8.97
2018-07-13T04:45:38.752Z,9.00
2018-07-13T04:48:06.350Z,8.40
2018-07-13T04:50:33.930Z,9.30
2018-07-13T04:53:01.609Z,9.33
2018-07-13T04:55:29.400Z,8.70
2018-07-13T04:57:57.002Z,8.20
2018-07-13T05:00:24.807Z,7.50
2018-07-13T05:02:52.548Z,10.57
2018-07-13T05:05:20.294Z,9.10
2018-07-13T05:07:48.035Z,7.00
2018-07-13T05:10:15.741Z,6.77
2018-07-13T05:12:43.504Z,6.43
2018-07-13T05:15:11.074Z,6.33
2018-07-13T05:17:38.806Z,7.17
2018-07-13T05:20:06.547Z,7.50
2018-07-13T05:22:34.584Z,6.70
2018-07-13T05:25:02.122Z,8.17
2018-07-13T05:27:30.308Z,6.90
2018-07-13T05:29:58.661Z,6.40
2018-07-13T05:32:26.459Z,6.23
2018-07-13T05:34:54.582Z,7.57
2018-07-13T05:37:22.415Z,6.80
2018-07-13T05:39:50.187Z,8.13
2018-07-13T05:42:18.014Z,9.10
2018-07-13T05:44:45.848Z,8.73
2018-07-13T05:47:13.694Z,9.70
2018-07-13T05:49:41.278Z,7.70
2018-07-13T05:52:09.032Z,9.50
2018-07-13T05:54:36.745Z,10.90
2018-07-13T05:57:07.577Z,9.33
2018-07-13T05:59:35.303Z,9.93
2018-07-13T06:02:03.229Z,9.67
2018-07-13T06:04:30.930Z,7.17
2018-07-13T06:06:58.684Z,8.07
2018-07-13T06:09:26.504Z,7.93
2018-07-13T06:11:54.289Z,7.87
2018-07-13T06:14:21.796Z,7.77
2018-07-13T06:16:49.446Z,9.13
2018-07-13T06:19:17.129Z,7.50
2018-07-13T06:21:44.856Z,6.27
2018-07-13T06:24:12.563Z,6.97
2018-07-13T06:26:40.215Z,6.17
2018-07-13T06:29:07.914Z,6.67
2018-07-13T06:31:35.667Z,6.50
2018-07-13T06:34:03.439Z,6.40
2018-07-13T06:36:31.195Z,6.33
2018-07-13T06:38:58.862Z,5.80
2018-07-13T06:41:26.594Z,6.10
2018-07-13T06:43:54.319Z,6.10
2018-07-13T06:46:21.999Z,4.33
2018-07-13T06:48:49.719Z,5.67
2018-07-13T06:51:17.250Z,3.73
2018-07-13T06:53:45.538Z,3.70
2018-07-13T06:56:13.153Z,3.63
2018-07-13T06:58:52.198Z,4.07
2018-07-13T07:01:19.723Z,4.70
2018-07-13T07:04:55.973Z,3.37
2018-07-13T07:07:24.622Z,3.73
2018-07-13T07:09:56.991Z,3.50
2018-07-13T07:14:32.422Z,3.20
2018-07-13T07:17:00.079Z,3.87
2018-07-13T07:19:27.693Z,3.50
2018-07-13T07:21:55.335Z,3.77
2018-07-13T07:24:23.037Z,3.33
2018-07-13T07:26:50.641Z,3.50
2018-07-13T07:29:18.318Z,5.37
2018-07-13T07:31:45.981Z,3.03
2018-07-13T07:34:13.655Z,3.30
2018-07-13T07:36:41.298Z,2.83
2018-07-13T07:39:10.560Z,4.17
2018-07-13T07:41:38.532Z,4.00
2018-07-13T07:44:06.248Z,3.70
2018-07-13T07:46:33.887Z,2.93
2018-07-13T07:49:01.475Z,3.40
2018-07-13T07:51:29.154Z,2.90
2018-07-13T07:53:56.645Z,4.37
2018-07-13T07:56:24.311Z,3.03
2018-07-13T07:58:51.889Z,3.27
2018-07-13T08:01:19.554Z,3.47
2018-07-13T08:03:47.200Z,2.93
2018-07-13T08:06:14.780Z,2.90
2018-07-13T08:08:42.346Z,3.47
2018-07-13T08:11:09.947Z,3.23
2018-07-13T08:13:37.634Z,3.00
2018-07-13T08:16:05.234Z,3.63
2018-07-13T08:18:32.845Z,3.83
2018-07-13T08:21:00.494Z,3.43
2018-07-13T08:23:28.494Z,3.27
2018-07-13T08:25:56.223Z,3.43
2018-07-13T08:28:24.091Z,3.17
2018-07-13T08:30:58.295Z,3.67
2018-07-13T08:33:25.956Z,3.00
2018-07-13T08:35:53.624Z,2.57
2018-07-13T08:38:21.326Z,2.63
2018-07-13T08:40:49.065Z,2.60
2018-07-13T08:43:16.625Z,2.40
2018-07-13T08:45:44.345Z,3.40
2018-07-13T08:48:12.014Z,2.77
2018-07-13T08:50:39.674Z,3.10
2018-07-13T08:53:07.393Z,2.83
2018-07-13T08:55:35.129Z,2.37
2018-07-13T08:58:02.911Z,2.47
2018-07-13T09:00:30.794Z,2.93
2018-07-13T09:02:58.500Z,4.23
2018-07-13T09:05:26.205Z,3.60
2018-07-13T09:07:53.854Z,2.87
2018-07-13T09:10:21.609Z,2.67
2018-07-13T09:12:49.256Z,3.27
2018-07-13T09:15:16.938Z,2.80
2018-07-13T09:17:44.490Z,2.73
2018-07-13T09:20:12.879Z,2.90
2018-07-13T09:22:40.453Z,3.73
2018-07-13T09:25:08.015Z,2.90
2018-07-13T09:27:35.745Z,3.20
2018-07-13T09:30:03.466Z,3.10
2018-07-13T09:32:31.142Z,2.97
2018-07-13T09:34:58.876Z,4.73
2018-07-13T09:37:26.611Z,2.50
2018-07-13T09:39:54.283Z,3.90
2018-07-13T09:42:22.004Z,2.90
2018-07-13T09:44:49.673Z,3.83
2018-07-13T09:47:17.195Z,2.77
2018-07-13T09:49:44.900Z,2.47
2018-07-13T09:52:12.455Z,3.90
2018-07-13T09:54:40.121Z,3.30
2018-07-13T09:57:07.609Z,2.90
2018-07-13T09:59:35.269Z,4.07
2018-07-13T10:02:02.949Z,2.37
2018-07-13T10:04:30.606Z,4.57
2018-07-13T10:06:58.243Z,3.20
2018-07-13T10:09:25.871Z,2.63
2018-07-13T10:11:53.590Z,2.80
2018-07-13T10:14:21.221Z,2.70
2018-07-13T10:16:48.990Z,4.73
2018-07-13T10:19:16.660Z,2.60
2018-07-13T10:21:44.516Z,3.33
2018-07-13T10:24:14.886Z,3.53
2018-07-13T10:26:42.634Z,2.40
2018-07-13T10:29:16.494Z,2.50
2018-07-13T10:31:44.110Z,3.00
2018-07-13T10:34:11.804Z,4.63
2018-07-13T10:36:41.812Z,1.85
2018-07-13T10:39:09.850Z,3.08
2018-07-13T10:41:37.520Z,2.85
2018-07-13T10:44:05.246Z,2.90
2018-07-13T10:46:33.076Z,2.00
2018-07-13T10:49:00.755Z,2.30
2018-07-13T10:51:28.409Z,2.45
2018-07-13T10:53:56.024Z,2.40
2018-07-13T10:56:24.618Z,2.60
2018-07-13T10:58:52.402Z,2.35
2018-07-13T11:01:19.972Z,2.05
2018-07-13T11:03:47.556Z,2.10
2018-07-13T11:06:15.219Z,2.00
2018-07-13T11:08:42.871Z,5.37
2018-07-13T11:11:10.508Z,2.25
2018-07-13T11:13:38.183Z,1.98
2018-07-13T11:16:05.747Z,2.17
2018-07-13T11:18:33.403Z,2.27
2018-07-13T11:21:01.078Z,2.25
2018-07-13T11:23:28.804Z,2.00
2018-07-13T11:25:56.473Z,2.02
2018-07-13T11:28:24.116Z,1.67
2018-07-13T11:30:51.827Z,1.87
2018-07-13T11:33:19.373Z,1.80
2018-07-13T11:35:47.001Z,2.72
2018-07-13T11:38:14.675Z,2.00
2018-07-13T11:40:42.326Z,2.25
2018-07-13T11:43:09.955Z,2.95
2018-07-13T11:45:37.602Z,1.92
2018-07-13T11:48:05.221Z,1.67
2018-07-13T11:50:32.732Z,2.00
2018-07-13T11:53:00.326Z,2.98
2018-07-13T11:55:27.967Z,1.82
2018-07-13T11:57:55.586Z,2.40
2018-07-13T12:00:23.251Z,1.85
2018-07-13T12:02:50.942Z,1.85
2018-07-13T12:05:18.612Z,2.35
2018-07-13T12:07:46.390Z,2.33
2018-07-13T12:10:13.907Z,1.90
2018-07-13T12:12:43.107Z,2.00
2018-07-13T12:15:10.787Z,2.05
2018-07-13T12:17:38.538Z,3.30
2018-07-13T12:20:06.191Z,2.62
2018-07-13T12:22:33.841Z,4.07
2018-07-13T12:25:01.442Z,1.80
2018-07-13T12:27:29.133Z,1.80
2018-07-13T12:29:56.856Z,2.13
2018-07-13T12:32:24.544Z,2.63
2018-07-13T12:34:52.065Z,1.92
2018-07-13T12:37:19.601Z,2.08
2018-07-13T12:39:47.397Z,1.90
2018-07-13T12:42:14.980Z,2.02
2018-07-13T12:44:42.682Z,2.12
2018-07-13T12:47:10.407Z,2.17
2018-07-13T12:49:37.961Z,3.87
2018-07-13T12:52:05.589Z,2.00
2018-07-13T12:54:33.260Z,2.43
2018-07-13T12:57:00.988Z,6.20
2018-07-13T12:59:28.727Z,3.03
2018-07-13T13:01:56.265Z,1.73
2018-07-13T13:04:23.770Z,2.10
2018-07-13T13:06:51.427Z,1.85
2018-07-13T13:09:19.067Z,1.90
2018-07-13T13:11:46.697Z,2.30
2018-07-13T13:14:14.278Z,2.08
2018-07-13T13:16:42.057Z,2.00
2018-07-13T13:19:09.686Z,1.97
2018-07-13T13:21:37.370Z,1.85
2018-07-13T13:24:05.001Z,1.90
2018-07-13T13:26:32.638Z,1.90
2018-07-13T13:29:00.137Z,2.23
2018-07-13T13:31:27.787Z,2.00
2018-07-13T13:33:55.311Z,3.13
2018-07-13T13:36:22.965Z,2.03
2018-07-13T13:38:50.615Z,1.83
2018-07-13T13:41:18.222Z,2.10
2018-07-13T13:43:45.836Z,2.15
2018-07-13T13:46:13.456Z,2.92
2018-07-13T13:48:41.087Z,3.05
2018-07-13T13:51:08.746Z,3.47
2018-07-13T13:53:36.416Z,1.72
2018-07-13T13:56:04.023Z,1.98
2018-07-13T13:58:31.656Z,1.70
2018-07-13T14:00:59.316Z,1.82
2018-07-13T14:03:26.882Z,2.27
2018-07-13T14:06:03.780Z,1.85
2018-07-13T14:08:31.461Z,1.90
2018-07-13T14:10:59.111Z,1.80
2018-07-13T14:13:26.771Z,2.10
2018-07-13T14:15:54.316Z,1.90
2018-07-13T14:18:21.956Z,2.58
2018-07-13T14:20:49.634Z,2.85
2018-07-13T14:23:17.250Z,1.90
2018-07-13T14:25:44.890Z,2.10
2018-07-13T14:28:12.505Z,1.72
2018-07-13T14:30:40.064Z,2.35
2018-07-13T14:33:07.723Z,1.82
2018-07-13T14:35:35.345Z,1.82
2018-07-13T14:38:02.971Z,1.92
2018-07-13T14:40:30.576Z,2.02
2018-07-13T14:42:58.256Z,2.02
2018-07-13T14:45:25.911Z,2.60
2018-07-13T14:47:53.605Z,2.00
2018-07-13T14:50:21.296Z,2.47
2018-07-13T14:52:48.992Z,1.60
2018-07-13T14:55:16.583Z,2.20
2018-07-13T14:57:44.318Z,1.75
2018-07-13T15:00:12.012Z,2.02
2018-07-13T15:02:39.683Z,2.60
2018-07-13T15:05:07.431Z,1.70
2018-07-13T15:07:35.050Z,1.55
2018-07-13T15:10:02.738Z,1.60
2018-07-13T15:12:30.237Z,1.75
2018-07-13T15:14:57.871Z,1.62
2018-07-13T15:17:25.495Z,2.87
2018-07-13T15:19:52.968Z,1.60
2018-07-13T15:22:20.568Z,1.55
2018-07-13T15:24:48.207Z,1.55
2018-07-13T15:27:15.777Z,1.90
2018-07-13T15:29:43.493Z,1.72
2018-07-13T15:32:10.984Z,1.60
2018-07-13T15:34:38.654Z,2.33
2018-07-13T15:37:06.262Z,2.17
2018-07-13T15:39:33.798Z,1.70
2018-07-13T15:42:01.463Z,2.00
2018-07-13T15:44:29.103Z,2.08
2018-07-13T15:46:56.812Z,3.72
2018-07-13T15:49:24.434Z,1.70
2018-07-13T15:51:52.088Z,2.17
2018-07-13T15:54:19.719Z,2.00
2018-07-13T15:56:47.282Z,1.72
2018-07-13T15:59:14.827Z,2.00
2018-07-13T16:01:42.536Z,1.80
2018-07-13T16:04:10.179Z,1.85
2018-07-13T16:06:37.792Z,1.92
2018-07-13T16:09:05.523Z,2.05
2018-07-13T16:11:33.187Z,1.80
2018-07-13T16:14:00.743Z,1.70
2018-07-13T16:16:28.418Z,1.70
2018-07-13T16:18:56.031Z,2.25
2018-07-13T16:21:23.682Z,1.60
2018-07-13T16:23:51.347Z,1.67
2018-07-13T16:26:18.941Z,1.57
2018-07-13T16:28:46.673Z,2.92
2018-07-13T16:31:14.366Z,1.40
2018-07-13T16:33:42.014Z,1.67
2018-07-13T16:36:09.729Z,1.50
2018-07-13T16:38:37.277Z,1.60
2018-07-13T16:41:04.980Z,1.80
2018-07-13T16:43:32.663Z,2.00
2018-07-13T16:46:00.293Z,1.70
2018-07-13T16:48:27.997Z,2.92
2018-07-13T16:50:55.661Z,2.30
2018-07-13T16:53:23.297Z,1.90
2018-07-13T16:55:51.022Z,1.77
2018-07-13T16:58:18.692Z,2.57
2018-07-13T17:00:46.429Z,1.70
2018-07-13T17:03:14.065Z,1.73
2018-07-13T17:05:41.692Z,2.13
2018-07-13T17:08:09.288Z,1.70
2018-07-13T17:10:36.955Z,2.63
2018-07-13T17:13:04.523Z,1.70
2018-07-13T17:15:32.200Z,3.20
2018-07-13T17:17:59.828Z,1.73
2018-07-13T17:20:27.730Z,1.60
2018-07-13T17:22:55.138Z,2.97
2018-07-13T17:25:22.850Z,3.00
2018-07-13T17:27:50.524Z,2.03
2018-07-13T17:30:18.273Z,1.80
2018-07-13T17:32:45.893Z,2.10
2018-07-13T17:35:13.770Z,2.27
2018-07-13T17:37:41.233Z,2.10
2018-07-13T17:40:08.758Z,1.77
2018-07-13T17:42:36.454Z,1.67
2018-07-13T17:45:04.678Z,1.63
2018-07-13T17:47:32.355Z,2.10
2018-07-13T17:49:59.855Z,1.70
2018-07-13T17:52:27.553Z,1.73
2018-07-13T17:54:55.092Z,2.77
2018-07-13T17:57:22.898Z,1.73
2018-07-13T17:59:50.504Z,2.10
2018-07-13T18:02:18.202Z,2.33
2018-07-13T18:04:45.839Z,1.83
2018-07-13T18:07:13.378Z,2.03
2018-07-13T18:09:40.995Z,2.70
2018-07-13T18:12:08.849Z,1.90
2018-07-13T18:14:36.495Z,1.90
2018-07-13T18:17:04.225Z,1.70
2018-07-13T18:19:31.850Z,1.67
2018-07-13T18:21:59.473Z,2.73
2018-07-13T18:24:27.146Z,1.70
2018-07-13T18:26:54.822Z,2.00
2018-07-13T18:29:22.384Z,1.50
2018-07-13T18:31:50.027Z,2.07
2018-07-13T18:34:17.689Z,2.10
2018-07-13T18:36:45.305Z,3.00
2018-07-13T18:39:12.973Z,2.60
2018-07-13T18:41:40.662Z,2.67
2018-07-13T18:44:08.410Z,2.20
2018-07-13T18:46:36.069Z,3.40
2018-07-13T18:49:03.632Z,3.07
2018-07-13T18:51:31.324Z,8.43
2018-07-13T18:53:58.984Z,10.53
2018-07-13T18:56:26.663Z,8.90
2018-07-13T18:58:54.329Z,15.60
2018-07-13T19:01:22.014Z,20.53
2018-07-13T19:03:49.648Z,12.20
2018-07-13T19:06:17.462Z,6.20
2018-07-13T19:08:45.112Z,3.40
2018-07-13T19:11:12.778Z,2.10
2018-07-13T19:13:41.077Z,1.73
2018-07-13T19:16:09.911Z,2.10
2018-07-13T19:18:37.585Z,3.00
2018-07-13T19:21:07.438Z,3.07
2018-07-13T19:23:35.609Z,2.10
2018-07-13T19:26:03.488Z,2.43
2018-07-13T19:28:32.133Z,1.50
2018-07-13T19:30:59.780Z,2.00
2018-07-13T19:33:28.379Z,2.40
2018-07-13T19:35:56.838Z,3.37
2018-07-13T19:38:24.455Z,2.63
2018-07-13T19:40:53.274Z,2.20
2018-07-13T19:43:21.913Z,2.20
2018-07-13T19:45:50.829Z,2.30
2018-07-13T19:48:19.379Z,2.10
2018-07-13T19:50:47.589Z,1.83
2018-07-13T19:53:15.361Z,2.20
2018-07-13T19:55:43.655Z,2.10
2018-07-13T19:58:12.138Z,2.33
2018-07-13T20:00:40.470Z,2.23
2018-07-13T20:03:08.538Z,2.50
2018-07-13T20:05:36.920Z,4.87
2018-07-13T20:08:04.854Z,2.50
2018-07-13T20:10:32.494Z,3.57
2018-07-13T20:13:00.770Z,3.57
2018-07-13T20:15:28.425Z,5.97
2018-07-13T20:17:56.078Z,3.37
2018-07-13T20:20:23.783Z,3.43
2018-07-13T20:22:51.579Z,3.27
2018-07-13T20:25:19.275Z,3.60
2018-07-13T20:27:47.397Z,3.10
2018-07-13T20:30:16.119Z,4.17
2018-07-13T20:32:45.399Z,2.93
2018-07-13T20:35:13.719Z,4.93
2018-07-13T20:37:42.045Z,3.07
2018-07-13T20:40:10.252Z,3.17
2018-07-13T20:42:39.657Z,4.37
2018-07-13T20:45:08.167Z,4.00
2018-07-13T20:47:36.312Z,2.97
2018-07-13T20:50:04.398Z,3.20
2018-07-13T20:52:32.669Z,3.30
2018-07-13T20:55:01.253Z,4.33
2018-07-13T20:57:28.859Z,5.87
2018-07-13T20:59:56.728Z,11.47
2018-07-13T21:02:25.661Z,11.70
2018-07-13T21:04:53.908Z,15.07
2018-07-13T21:07:21.914Z,9.37
2018-07-13T21:09:49.503Z,8.90
2018-07-13T21:12:19.127Z,7.40
2018-07-13T21:14:49.175Z,5.83
2018-07-13T21:17:17.203Z,5.90
2018-07-13T21:19:45.088Z,6.63
2018-07-13T21:22:14.414Z,5.80
2018-07-13T21:24:42.052Z,3.13
2018-07-13T21:27:10.309Z,3.90
2018-07-13T21:29:39.994Z,5.27
2018-07-13T21:32:08.203Z,3.87
2018-07-13T21:34:35.922Z,3.57
2018-07-13T21:37:03.459Z,4.47
2018-07-13T21:39:31.052Z,3.50
2018-07-13T21:41:58.751Z,4.40
2018-07-13T21:44:26.401Z,4.10
2018-07-13T21:46:54.068Z,4.37
2018-07-13T21:49:21.745Z,3.30
2018-07-13T21:51:49.249Z,4.40
2018-07-13T21:54:17.345Z,3.40
2018-07-13T21:56:44.993Z,3.63
2018-07-13T21:59:12.537Z,4.10
2018-07-13T22:01:40.386Z,3.30
2018-07-13T22:04:08.043Z,4.90
2018-07-13T22:06:35.697Z,3.47
2018-07-13T22:09:03.707Z,4.07
2018-07-13T22:11:31.334Z,3.30
2018-07-13T22:13:58.991Z,3.40
2018-07-13T22:16:26.494Z,4.43
2018-07-13T22:18:54.128Z,4.20
2018-07-13T22:21:21.855Z,3.37
2018-07-13T22:24:00.605Z,5.23
2018-07-13T22:26:28.327Z,4.73
2018-07-13T22:28:56.117Z,4.17
2018-07-13T22:31:23.805Z,4.50
2018-07-13T22:33:51.340Z,4.40
2018-07-13T22:36:18.875Z,3.80
2018-07-13T22:38:46.479Z,3.60
2018-07-13T22:41:14.084Z,4.87
2018-07-13T22:43:41.836Z,4.77
2018-07-13T22:46:09.416Z,3.90
2018-07-13T22:48:37.044Z,4.20
2018-07-13T22:51:04.747Z,3.80
2018-07-13T22:53:32.200Z,4.93
2018-07-13T22:55:59.824Z,4.10
2018-07-13T22:58:27.489Z,5.10
2018-07-13T23:00:55.003Z,5.70
2018-07-13T23:03:22.634Z,3.30
2018-07-13T23:05:50.209Z,3.83
2018-07-13T23:08:17.844Z,3.97
2018-07-13T23:10:45.443Z,4.07
2018-07-13T23:13:13.284Z,4.10
2018-07-13T23:15:40.893Z,4.23
2018-07-13T23:18:08.539Z,3.83
2018-07-13T23:20:36.219Z,3.73
2018-07-13T23:23:04.061Z,5.23
2018-07-13T23:25:31.676Z,5.13
2018-07-13T23:27:59.328Z,5.63
2018-07-13T23:30:26.971Z,4.13
2018-07-13T23:32:54.593Z,4.83
2018-07-13T23:35:22.263Z,3.67
2018-07-13T23:37:49.890Z,4.97
2018-07-13T23:40:17.519Z,3.90
2018-07-13T23:42:45.156Z,4.03
2018-07-13T23:45:12.763Z,5.00
2018-07-13T23:47:40.389Z,4.50
2018-07-13T23:50:08.030Z,4.83
2018-07-13T23:52:35.703Z,3.60
2018-07-13T23:55:03.453Z,4.43
2018-07-13T23:57:31.058Z,3.80
2018-07-13T23:59:58.585Z,4.40
